Time;durP1;ratioP1;P1;durP2;ratioP2;P2;SDS_P1;SDS_P2;PMS_P1;PMS_P2;Temp;Humidity;BMP_temperature;BMP_pressure;BME280_temperature;BME280_humidity;BME280_pressure;Samples;Min_cycle;Max_cycle;Signal;HPM_P1;HPM_P2
2022/03/04 00:02:11;;;;;;;1.00;0.50;;;10.50;72.10;;;;;;5037092;28;20488;-87
2022/03/04 00:04:37;;;;;;;0.60;0.50;;;10.40;71.90;;;;;;5071721;28;20046;-93
2022/03/04 00:07:04;;;;;;;0.32;0.30;;;10.40;71.90;;;;;;5059500;28;20029;-94
2022/03/04 00:09:31;;;;;;;1.08;0.50;;;10.40;72.40;;;;;;5054886;28;20028;-92
2022/03/04 00:11:58;;;;;;;0.68;0.40;;;10.40;71.90;;;;;;5095532;28;20090;-93
2022/03/04 00:14:27;;;;;;;1.52;0.50;;;10.40;71.90;;;;;;5078667;28;20040;-91
2022/03/04 00:16:53;;;;;;;0.45;0.43;;;10.40;71.90;;;;;;5077900;28;20092;-91
2022/03/04 00:19:19;;;;;;;0.50;0.50;;;10.40;71.90;;;;;;5098732;28;20082;-93
2022/03/04 00:21:48;;;;;;;0.40;0.40;;;10.30;71.70;;;;;;5098952;28;20043;-93
2022/03/04 00:24:16;;;;;;;0.55;0.38;;;10.30;71.70;;;;;;5097894;28;20390;-94
2022/03/04 00:26:43;;;;;;;0.40;0.40;;;10.30;71.70;;;;;;5079666;28;20082;-94
2022/03/04 00:29:10;;;;;;;0.60;0.60;;;10.30;71.70;;;;;;5098235;28;20043;-92
2022/03/04 00:31:36;;;;;;;1.27;0.45;;;10.30;71.70;;;;;;5096086;28;20051;-93
2022/03/04 00:34:06;;;;;;;0.98;0.40;;;10.30;71.70;;;;;;5082254;28;20062;-90
2022/03/04 00:36:33;;;;;;;0.47;0.40;;;10.20;71.60;;;;;;5092340;28;20506;-90
2022/03/04 00:38:59;;;;;;;0.60;0.40;;;10.30;71.80;;;;;;5050678;28;20474;-92
2022/03/04 00:41:25;;;;;;;0.43;0.43;;;10.20;71.60;;;;;;5075633;28;20024;-95
2022/03/04 00:43:52;;;;;;;0.65;0.40;;;10.20;71.60;;;;;;5040964;28;20029;-93
2022/03/04 00:46:19;;;;;;;0.77;0.40;;;10.20;71.60;;;;;;5075224;28;20039;-94
2022/03/04 00:48:45;;;;;;;0.73;0.40;;;10.20;71.60;;;;;;5063689;28;20055;-94
2022/03/04 00:51:13;;;;;;;0.55;0.40;;;10.10;71.50;;;;;;5094697;28;20039;-90
2022/03/04 00:53:40;;;;;;;0.45;0.40;;;10.20;71.60;;;;;;5093308;28;20379;-90
2022/03/04 00:56:08;;;;;;;0.77;0.60;;;10.10;71.50;;;;;;5074641;28;20111;-92
2022/03/04 00:58:37;;;;;;;0.50;0.50;;;10.10;71.50;;;;;;5086787;28;20049;-90
2022/03/04 01:01:04;;;;;;;0.70;0.40;;;10.10;71.50;;;;;;5036846;28;20177;-88
2022/03/04 01:03:31;;;;;;;0.60;0.50;;;10.10;71.50;;;;;;5071063;28;20032;-91
2022/03/04 01:06:01;;;;;;;0.73;0.70;;;10.10;71.50;;;;;;5073868;28;20086;-87
2022/03/04 01:08:27;;;;;;;0.60;0.60;;;10.10;71.50;;;;;;5055704;28;20024;-85
2022/03/04 01:10:54;;;;;;;0.50;0.40;;;10.10;71.50;;;;;;5089764;28;20059;-87
2022/03/04 01:13:22;;;;;;;0.60;0.60;;;10.10;71.50;;;;;;5055172;28;20086;-89
2022/03/04 01:15:48;;;;;;;0.90;0.50;;;10.00;71.20;;;;;;5090178;28;20059;-88
2022/03/04 01:18:15;;;;;;;0.82;0.60;;;10.00;71.30;;;;;;5071118;28;20548;-88
2022/03/04 01:20:41;;;;;;;1.08;0.60;;;10.00;71.20;;;;;;5072655;28;20530;-89
2022/03/04 01:23:07;;;;;;;0.50;0.50;;;10.00;71.20;;;;;;5055190;28;20028;-87
2022/03/04 01:25:33;;;;;;;1.10;0.43;;;10.00;71.30;;;;;;5054631;28;20412;-86
2022/03/04 01:27:59;;;;;;;1.42;0.65;;;10.00;71.30;;;;;;5082196;28;20479;-87
2022/03/04 01:30:25;;;;;;;0.70;0.50;;;10.00;71.30;;;;;;5034564;28;20029;-87
2022/03/04 01:32:51;;;;;;;0.93;0.30;;;10.00;71.30;;;;;;5066087;28;20037;-86
2022/03/04 01:35:18;;;;;;;0.40;0.40;;;9.90;71.10;;;;;;5067383;28;20032;-86
2022/03/04 01:37:44;;;;;;;0.50;0.43;;;9.90;71.10;;;;;;5069066;28;20213;-86
2022/03/04 01:40:11;;;;;;;0.60;0.40;;;9.90;71.20;;;;;;5054580;28;20482;-85
2022/03/04 01:42:38;;;;;;;0.70;0.30;;;9.90;71.10;;;;;;5070332;28;20124;-84
2022/03/04 01:45:06;;;;;;;0.60;0.57;;;9.90;71.10;;;;;;5071317;28;20039;-85
2022/03/04 01:47:33;;;;;;;0.43;0.40;;;9.90;71.10;;;;;;5070669;28;20048;-85
2022/03/04 01:50:00;;;;;;;1.25;0.63;;;9.90;71.10;;;;;;5091307;28;20110;-90
2022/03/04 01:52:26;;;;;;;0.40;0.40;;;9.90;71.10;;;;;;5092386;28;20047;-88
2022/03/04 01:54:52;;;;;;;0.70;0.60;;;9.90;71.10;;;;;;5090359;28;20020;-87
2022/03/04 01:57:18;;;;;;;0.88;0.45;;;9.90;71.10;;;;;;5071617;28;20046;-88
2022/03/04 01:59:44;;;;;;;0.60;0.50;;;9.90;71.00;;;;;;5090013;28;20032;-89
2022/03/04 02:02:10;;;;;;;1.50;0.40;;;9.90;71.00;;;;;;5071658;28;20035;-88
2022/03/04 02:04:37;;;;;;;0.50;0.40;;;9.90;71.00;;;;;;5070245;28;20028;-84
2022/03/04 02:07:03;;;;;;;0.50;0.50;;;9.90;71.00;;;;;;5070712;28;20059;-83
2022/03/04 02:09:29;;;;;;;0.55;0.55;;;9.90;71.00;;;;;;5070499;28;20028;-85
2022/03/04 02:11:56;;;;;;;0.60;0.50;;;9.90;71.50;;;;;;5070134;28;20046;-85
2022/03/04 02:14:22;;;;;;;0.45;0.40;;;9.90;71.00;;;;;;5089127;28;20024;-86
2022/03/04 02:16:50;;;;;;;0.50;0.43;;;9.90;71.00;;;;;;5089440;28;20059;-86
2022/03/04 02:19:17;;;;;;;0.70;0.43;;;9.90;71.00;;;;;;5077394;28;20067;-85
2022/03/04 02:21:53;;;;;;;0.52;0.50;;;9.90;71.00;;;;;;5052635;28;20039;-89
2022/03/04 02:24:22;;;;;;;0.43;0.38;;;9.80;70.80;;;;;;5052952;28;20115;-90
2022/03/04 02:26:49;;;;;;;0.52;0.52;;;9.90;71.00;;;;;;5070183;28;20036;-88
2022/03/04 02:29:15;;;;;;;0.60;0.60;;;9.90;70.90;;;;;;5068451;28;20028;-86
2022/03/04 02:31:41;;;;;;;0.50;0.50;;;9.90;70.90;;;;;;5049811;28;20059;-87
2022/03/04 02:34:07;;;;;;;0.63;0.40;;;9.80;70.70;;;;;;5068414;28;20021;-86
2022/03/04 02:36:34;;;;;;;0.55;0.52;;;9.80;70.70;;;;;;5068863;28;20081;-88
2022/03/04 02:39:00;;;;;;;0.70;0.40;;;9.80;70.70;;;;;;5050043;28;20027;-86
2022/03/04 02:41:27;;;;;;;0.40;0.40;;;9.80;70.70;;;;;;5050300;28;20099;-87
2022/03/04 02:43:53;;;;;;;0.43;0.43;;;9.80;70.70;;;;;;5068594;28;20029;-88
2022/03/04 02:46:19;;;;;;;0.52;0.47;;;9.80;70.70;;;;;;5080830;28;20024;-86
2022/03/04 02:48:45;;;;;;;0.77;0.35;;;9.80;70.70;;;;;;5073068;28;20056;-88
2022/03/04 02:51:11;;;;;;;0.40;0.40;;;9.80;70.70;;;;;;5092652;28;20036;-90
2022/03/04 02:53:37;;;;;;;0.50;0.50;;;9.70;70.60;;;;;;5092149;28;20093;-88
2022/03/04 02:56:03;;;;;;;1.05;0.50;;;9.70;70.60;;;;;;5092289;28;20255;-89
2022/03/04 02:58:29;;;;;;;0.73;0.60;;;9.70;70.60;;;;;;5074763;28;20029;-87
2022/03/04 03:00:55;;;;;;;0.50;0.50;;;9.70;71.10;;;;;;5074264;28;20047;-88
2022/03/04 03:03:21;;;;;;;0.50;0.45;;;9.70;70.60;;;;;;5092154;28;20028;-90
2022/03/04 03:05:47;;;;;;;2.42;0.50;;;9.70;70.60;;;;;;5073051;28;20035;-85
2022/03/04 03:08:14;;;;;;;0.32;0.32;;;9.70;70.60;;;;;;5090535;28;20028;-85
2022/03/04 03:10:40;;;;;;;0.88;0.60;;;9.70;70.60;;;;;;5091399;28;20027;-88
2022/03/04 03:13:06;;;;;;;0.45;0.45;;;9.70;70.50;;;;;;5091039;28;20514;-88
2022/03/04 03:15:32;;;;;;;0.77;0.65;;;9.70;70.50;;;;;;5091346;28;20033;-87
2022/03/04 03:17:59;;;;;;;2.80;0.50;;;9.70;70.50;;;;;;5073387;28;20035;-87
2022/03/04 03:20:25;;;;;;;0.50;0.45;;;9.70;70.50;;;;;;5091554;28;20028;-89
2022/03/04 03:22:50;;;;;;;1.38;0.50;;;9.70;70.50;;;;;;5091202;28;20088;-89
2022/03/04 03:25:17;;;;;;;1.38;0.60;;;9.70;70.50;;;;;;5091618;28;20498;-87
2022/03/04 03:27:43;;;;;;;1.23;0.60;;;9.60;70.30;;;;;;5091893;28;20083;-89
2022/03/04 03:30:10;;;;;;;0.73;0.50;;;9.70;70.50;;;;;;5073235;28;20029;-87
2022/03/04 03:32:36;;;;;;;0.60;0.52;;;9.60;70.30;;;;;;5090783;28;20043;-87
2022/03/04 03:35:02;;;;;;;1.65;0.60;;;9.60;70.30;;;;;;5072985;28;20455;-87
2022/03/04 03:37:28;;;;;;;1.13;1.02;;;9.60;70.30;;;;;;5074049;28;20466;-87
2022/03/04 03:39:54;;;;;;;0.90;0.70;;;9.60;70.30;;;;;;5091830;28;20039;-91
2022/03/04 03:42:20;;;;;;;0.60;0.60;;;9.60;70.30;;;;;;5092615;28;20016;-86
2022/03/04 03:44:46;;;;;;;0.70;0.70;;;9.60;70.30;;;;;;5090057;28;20032;-83
2022/03/04 03:47:13;;;;;;;0.80;0.70;;;9.50;70.10;;;;;;5090108;28;21013;-84
2022/03/04 03:49:39;;;;;;;0.82;0.60;;;9.50;70.10;;;;;;5072238;28;20039;-84
2022/03/04 03:52:06;;;;;;;0.85;0.60;;;9.50;70.20;;;;;;5072829;28;20468;-85
2022/03/04 03:54:33;;;;;;;0.68;0.60;;;9.50;70.20;;;;;;5091017;28;20046;-87
2022/03/04 03:56:59;;;;;;;0.55;0.55;;;9.50;70.20;;;;;;5091360;28;20053;-87
2022/03/04 03:59:25;;;;;;;0.70;0.70;;;9.50;70.30;;;;;;5073851;28;20032;-87
2022/03/04 04:01:51;;;;;;;1.23;0.90;;;9.50;70.30;;;;;;5095411;28;20028;-88
2022/03/04 04:04:17;;;;;;;1.83;0.80;;;9.40;70.10;;;;;;5094151;28;20028;-87
2022/03/04 04:06:44;;;;;;;0.75;0.60;;;9.40;70.10;;;;;;5077838;28;20054;-84
2022/03/04 04:09:10;;;;;;;1.00;0.80;;;9.40;70.10;;;;;;5079979;28;20027;-84
2022/03/04 04:11:38;;;;;;;0.70;0.60;;;9.40;70.10;;;;;;5098500;28;20040;-86
2022/03/04 04:14:05;;;;;;;0.90;0.90;;;9.40;70.10;;;;;;5097877;28;20063;-87
2022/03/04 04:16:32;;;;;;;1.17;0.80;;;9.40;70.10;;;;;;5098655;28;20020;-87
2022/03/04 04:18:58;;;;;;;0.90;0.70;;;9.40;70.20;;;;;;5081434;28;20032;-87
2022/03/04 04:21:25;;;;;;;1.02;0.70;;;9.30;70.00;;;;;;5102923;28;20114;-88
2022/03/04 04:23:55;;;;;;;0.60;0.60;;;9.30;70.00;;;;;;5103653;28;20325;-88
2022/03/04 04:26:22;;;;;;;0.93;0.70;;;9.30;70.00;;;;;;5083223;28;20036;-88
2022/03/04 04:28:48;;;;;;;0.60;0.60;;;9.30;70.10;;;;;;5100316;28;20035;-88
2022/03/04 04:31:14;;;;;;;1.60;0.70;;;9.30;70.10;;;;;;5101793;28;20103;-88
2022/03/04 04:33:40;;;;;;;0.80;0.80;;;9.20;70.00;;;;;;5103456;28;20028;-89
2022/03/04 04:36:07;;;;;;;0.90;0.63;;;9.20;70.00;;;;;;5099935;28;20071;-87
2022/03/04 04:38:33;;;;;;;0.77;0.52;;;9.20;70.00;;;;;;5096895;28;20032;-87
2022/03/04 04:40:59;;;;;;;0.80;0.68;;;9.20;70.10;;;;;;5094905;28;20051;-87
2022/03/04 04:43:25;;;;;;;1.17;0.90;;;9.10;69.90;;;;;;5080920;28;20546;-84
2022/03/04 04:45:51;;;;;;;1.38;0.90;;;9.10;70.20;;;;;;5093825;28;20115;-84
2022/03/04 04:48:17;;;;;;;2.05;1.00;;;9.10;69.90;;;;;;5093077;28;20591;-84
2022/03/04 04:50:43;;;;;;;0.90;0.70;;;9.10;70.00;;;;;;5075395;28;20047;-85
2022/03/04 04:53:09;;;;;;;0.80;0.70;;;9.10;70.00;;;;;;5093475;28;20043;-84
2022/03/04 04:55:35;;;;;;;1.27;0.70;;;9.10;70.00;;;;;;5075440;28;20020;-85
2022/03/04 04:58:01;;;;;;;1.48;0.73;;;9.10;70.00;;;;;;5076239;28;20050;-86
2022/03/04 05:00:27;;;;;;;1.13;0.70;;;9.10;70.00;;;;;;5096029;28;20069;-86
2022/03/04 05:02:54;;;;;;;0.85;0.50;;;9.10;69.90;;;;;;5044964;28;20091;-84
2022/03/04 05:05:20;;;;;;;1.75;0.98;;;9.10;69.90;;;;;;5095258;28;20028;-85
2022/03/04 05:07:46;;;;;;;0.70;0.50;;;9.10;69.90;;;;;;5076375;28;20031;-83
2022/03/04 05:10:13;;;;;;;1.17;0.80;;;9.10;69.90;;;;;;5092793;28;20076;-84
2022/03/04 05:12:40;;;;;;;1.60;0.63;;;9.10;69.80;;;;;;5074649;28;20043;-83
2022/03/04 05:15:07;;;;;;;1.08;0.60;;;9.10;69.80;;;;;;5074484;28;20043;-84
2022/03/04 05:17:33;;;;;;;1.13;0.70;;;9.10;69.80;;;;;;5057879;28;20035;-84
2022/03/04 05:19:59;;;;;;;0.63;0.60;;;9.00;69.60;;;;;;5074346;28;20024;-85
2022/03/04 05:22:25;;;;;;;0.80;0.75;;;9.10;69.80;;;;;;5092562;28;20031;-82
2022/03/04 05:24:52;;;;;;;1.95;1.00;;;9.00;69.70;;;;;;5074458;28;20361;-87
2022/03/04 05:27:18;;;;;;;1.80;0.75;;;9.00;69.70;;;;;;5074411;28;20087;-86
2022/03/04 05:29:44;;;;;;;0.85;0.57;;;9.00;69.70;;;;;;5074813;28;20028;-88
2022/03/04 05:32:10;;;;;;;1.95;0.75;;;9.00;69.70;;;;;;5093174;28;20051;-87
2022/03/04 05:34:37;;;;;;;0.88;0.80;;;8.90;69.50;;;;;;5073737;28;20024;-85
2022/03/04 05:37:04;;;;;;;3.38;1.05;;;8.90;69.50;;;;;;5092233;28;20525;-86
2022/03/04 05:39:30;;;;;;;1.60;0.50;;;8.90;69.50;;;;;;5074608;28;20081;-87
2022/03/04 05:41:56;;;;;;;1.20;0.60;;;8.90;69.60;;;;;;5094249;28;20020;-90
2022/03/04 05:44:22;;;;;;;0.85;0.52;;;8.90;69.60;;;;;;5093380;28;20039;-89
2022/03/04 05:46:48;;;;;;;1.95;0.77;;;8.90;69.60;;;;;;5092667;28;20480;-90
2022/03/04 05:49:15;;;;;;;1.15;0.50;;;8.90;69.60;;;;;;5037095;28;20037;-89
2022/03/04 05:51:41;;;;;;;0.95;0.73;;;8.90;69.60;;;;;;5051597;28;20123;-88
2022/03/04 05:54:07;;;;;;;1.58;0.77;;;8.80;69.40;;;;;;5050761;28;20028;-88
2022/03/04 05:56:33;;;;;;;0.82;0.70;;;8.80;69.40;;;;;;5069965;28;20028;-87
2022/03/04 05:58:59;;;;;;;1.52;0.80;;;8.80;69.40;;;;;;5064411;28;20124;-87
2022/03/04 06:01:25;;;;;;;1.48;0.50;;;8.80;69.40;;;;;;5088683;28;20115;-86
2022/03/04 06:03:51;;;;;;;2.42;0.63;;;8.80;69.40;;;;;;5085686;28;20028;-84
2022/03/04 06:06:17;;;;;;;1.75;0.70;;;8.80;69.40;;;;;;5059401;28;20035;-81
2022/03/04 06:08:43;;;;;;;0.82;0.80;;;8.80;69.40;;;;;;5056296;28;20033;-88
2022/03/04 06:11:10;;;;;;;1.50;0.80;;;8.80;69.40;;;;;;5068821;28;20423;-83
2022/03/04 06:13:37;;;;;;;1.92;0.60;;;8.80;69.40;;;;;;5068625;28;20027;-82
2022/03/04 06:16:04;;;;;;;1.35;0.80;;;8.80;69.40;;;;;;5068061;28;20495;-82
2022/03/04 06:18:30;;;;;;;0.90;0.52;;;8.70;69.20;;;;;;5050281;28;20428;-81
2022/03/04 06:20:57;;;;;;;0.93;0.70;;;8.70;69.20;;;;;;5069933;28;20028;-81
2022/03/04 06:23:23;;;;;;;2.83;0.63;;;8.70;69.20;;;;;;5050598;28;20028;-82
2022/03/04 06:25:50;;;;;;;2.47;0.73;;;8.70;69.20;;;;;;5076961;28;20028;-81
2022/03/04 06:28:16;;;;;;;1.02;0.63;;;8.60;69.10;;;;;;5069124;28;20262;-81
2022/03/04 06:30:42;;;;;;;1.40;0.80;;;8.60;69.10;;;;;;5040042;28;20037;-81
2022/03/04 06:35:54;;;;;;;1.45;0.65;;;8.60;69.20;;;;;;5085027;28;20492;-80
2022/03/04 06:38:20;;;;;;;2.15;1.05;;;8.50;69.10;;;;;;5073187;28;20119;-81
2022/03/04 06:40:48;;;;;;;2.03;1.02;;;8.50;69.10;;;;;;5055678;28;20032;-78
2022/03/04 06:43:14;;;;;;;1.70;0.70;;;8.50;69.10;;;;;;5077360;28;20406;-76
2022/03/04 06:45:45;;;;;;;2.58;0.88;;;8.50;69.10;;;;;;5070570;28;20039;-75
2022/03/04 06:48:12;;;;;;;1.85;0.60;;;8.40;68.90;;;;;;5044662;28;20055;-76
2022/03/04 06:50:38;;;;;;;1.00;0.85;;;8.50;69.10;;;;;;5067240;28;20028;-75
2022/03/04 06:53:04;;;;;;;1.17;0.90;;;8.40;68.90;;;;;;5071402;28;20437;-75
2022/03/04 06:55:31;;;;;;;1.50;0.88;;;8.40;68.90;;;;;;5074481;28;20144;-75
2022/03/04 06:57:57;;;;;;;1.50;1.10;;;8.40;68.90;;;;;;5057016;28;20870;-76
2022/03/04 07:00:27;;;;;;;0.93;0.80;;;8.40;68.90;;;;;;5087013;28;20032;-76
2022/03/04 07:02:54;;;;;;;2.08;0.80;;;8.40;68.90;;;;;;5073363;28;20031;-78
2022/03/04 07:05:21;;;;;;;3.28;1.45;;;8.40;69.00;;;;;;5066905;28;20482;-77
2022/03/04 07:07:51;;;;;;;2.15;0.95;;;8.40;68.90;;;;;;5067999;28;20024;-76
2022/03/04 07:10:18;;;;;;;1.98;1.20;;;8.30;68.80;;;;;;5052868;28;20132;-78
2022/03/04 07:12:45;;;;;;;1.35;1.10;;;8.40;68.90;;;;;;5069339;28;20048;-77
2022/03/04 07:15:11;;;;;;;1.83;1.00;;;8.30;68.70;;;;;;5087605;28;20199;-81
2022/03/04 07:17:37;;;;;;;1.60;1.20;;;8.30;68.70;;;;;;5052583;28;20028;-78
2022/03/04 07:20:05;;;;;;;1.85;0.98;;;8.30;68.70;;;;;;5086807;28;20028;-78
2022/03/04 07:22:32;;;;;;;2.42;1.20;;;8.40;68.90;;;;;;5087223;28;20119;-83
2022/03/04 07:24:58;;;;;;;1.15;1.00;;;8.40;68.90;;;;;;5071512;28;20071;-83
2022/03/04 07:27:24;;;;;;;1.20;1.05;;;8.30;68.70;;;;;;5068585;28;20494;-80
2022/03/04 07:29:50;;;;;;;2.47;0.98;;;8.30;68.70;;;;;;5086690;28;20020;-81
2022/03/04 07:32:16;;;;;;;1.60;1.48;;;8.40;68.90;;;;;;5068986;28;20054;-87
2022/03/04 07:34:42;;;;;;;1.85;1.15;;;8.40;68.90;;;;;;5080033;28;20024;-86
2022/03/04 07:37:08;;;;;;;3.30;1.70;;;8.40;69.40;;;;;;5076965;28;20038;-83
2022/03/04 07:39:34;;;;;;;1.40;1.30;;;8.40;68.80;;;;;;5055168;28;20123;-84
2022/03/04 07:42:01;;;;;;;2.42;1.40;;;8.40;68.80;;;;;;5071748;28;20028;-78
2022/03/04 07:44:28;;;;;;;2.55;1.60;;;8.40;68.70;;;;;;5053815;28;20039;-77
2022/03/04 07:46:54;;;;;;;2.28;1.60;;;8.50;68.80;;;;;;5037019;28;20127;-78
2022/03/04 07:49:20;;;;;;;2.03;1.60;;;8.40;68.60;;;;;;5044213;28;20593;-78
2022/03/04 07:51:47;;;;;;;2.85;1.85;;;8.50;68.70;;;;;;5089639;28;20048;-79
2022/03/04 07:54:13;;;;;;;1.42;1.25;;;8.50;68.70;;;;;;5071438;28;20024;-78
2022/03/04 07:56:40;;;;;;;2.30;1.35;;;8.60;68.70;;;;;;5071367;28;20028;-78
2022/03/04 07:59:07;;;;;;;1.75;1.40;;;8.60;68.60;;;;;;5075337;28;20098;-79
2022/03/04 08:01:33;;;;;;;2.42;1.80;;;8.60;68.60;;;;;;5052453;28;20428;-80
2022/03/04 08:03:59;;;;;;;1.60;1.50;;;8.70;68.60;;;;;;5069365;28;20028;-79
2022/03/04 08:06:25;;;;;;;1.92;1.73;;;8.70;68.60;;;;;;5084199;28;20028;-79
2022/03/04 08:08:51;;;;;;;3.05;1.98;;;8.70;68.50;;;;;;5070837;28;20028;-78
2022/03/04 08:11:17;;;;;;;2.05;1.67;;;8.70;68.40;;;;;;5052226;28;20078;-79
2022/03/04 08:13:43;;;;;;;2.22;1.95;;;8.80;68.60;;;;;;5079052;28;20038;-80
2022/03/04 08:16:10;;;;;;;2.95;1.65;;;8.80;68.50;;;;;;5055683;28;20028;-79
2022/03/04 08:18:36;;;;;;;2.30;1.88;;;8.80;68.40;;;;;;5089884;28;20495;-79
2022/03/04 08:21:03;;;;;;;2.80;1.90;;;8.80;68.40;;;;;;5090535;28;20170;-78
2022/03/04 08:23:31;;;;;;;3.53;1.67;;;8.80;68.40;;;;;;5090275;28;20036;-78
2022/03/04 08:26:03;;;;;;;2.13;1.92;;;8.80;68.30;;;;;;5090009;28;20028;-80
2022/03/04 08:28:30;;;;;;;2.20;1.77;;;8.80;68.30;;;;;;5047203;28;20037;-79
2022/03/04 08:30:56;;;;;;;2.83;1.90;;;8.80;68.30;;;;;;5068559;28;20059;-79
2022/03/04 08:33:24;;;;;;;2.58;2.15;;;8.80;68.30;;;;;;5069090;28;20487;-81
2022/03/04 08:35:51;;;;;;;3.60;1.95;;;8.80;68.40;;;;;;5069973;28;20028;-87
2022/03/04 08:38:17;;;;;;;2.42;1.80;;;8.80;68.40;;;;;;5054434;28;20070;-83
2022/03/04 08:40:43;;;;;;;2.35;2.03;;;8.80;68.40;;;;;;5089045;28;20035;-80
2022/03/04 08:43:09;;;;;;;2.75;1.80;;;8.80;68.40;;;;;;5069486;28;20032;-82
2022/03/04 08:45:35;;;;;;;1.95;1.55;;;8.80;68.40;;;;;;5087679;28;20070;-82
2022/03/04 08:48:06;;;;;;;2.92;2.08;;;8.80;68.40;;;;;;5067143;28;20063;-81
2022/03/04 08:50:33;;;;;;;2.30;1.98;;;8.90;68.50;;;;;;5068959;28;20056;-81
2022/03/04 08:53:01;;;;;;;2.47;1.98;;;8.90;68.50;;;;;;5069497;28;20040;-80
2022/03/04 08:55:30;;;;;;;2.97;2.05;;;8.90;68.40;;;;;;5051577;28;20048;-81
2022/03/04 08:57:57;;;;;;;3.00;2.08;;;8.90;68.30;;;;;;5069041;28;20029;-80
2022/03/04 09:00:24;;;;;;;4.75;2.55;;;8.90;68.30;;;;;;5069326;28;20032;-84
2022/03/04 09:02:50;;;;;;;3.70;2.35;;;8.90;68.30;;;;;;5051226;28;20031;-79
2022/03/04 09:05:17;;;;;;;4.25;1.98;;;9.00;68.40;;;;;;5069500;28;20471;-83
2022/03/04 09:07:43;;;;;;;4.60;2.00;;;9.00;68.40;;;;;;5069023;28;20028;-80
2022/03/04 09:10:09;;;;;;;3.63;1.80;;;9.00;68.40;;;;;;5068974;28;20079;-82
2022/03/04 09:12:35;;;;;;;4.00;1.70;;;9.10;68.50;;;;;;5068690;28;20759;-81
2022/03/04 09:15:03;;;;;;;4.85;2.30;;;9.10;68.40;;;;;;5070142;28;20037;-81
2022/03/04 09:17:29;;;;;;;3.92;1.80;;;9.10;68.40;;;;;;5088942;28;20463;-81
2022/03/04 09:19:55;;;;;;;2.22;1.88;;;9.10;68.30;;;;;;5077156;28;20032;-80
2022/03/04 09:22:21;;;;;;;3.30;1.75;;;9.20;68.40;;;;;;5089323;28;20038;-80
2022/03/04 09:24:47;;;;;;;3.38;2.50;;;9.20;68.40;;;;;;5088925;28;20024;-81
2022/03/04 09:27:13;;;;;;;3.78;1.55;;;9.30;68.50;;;;;;5071233;28;20028;-82
2022/03/04 09:29:39;;;;;;;2.90;1.70;;;9.30;68.40;;;;;;5070363;28;20020;-81
2022/03/04 09:32:06;;;;;;;3.85;1.60;;;9.30;68.30;;;;;;5070884;28;20050;-83
2022/03/04 09:34:32;;;;;;;2.67;1.27;;;9.30;68.30;;;;;;5088216;28;20494;-80
2022/03/04 09:36:58;;;;;;;3.28;1.65;;;9.40;68.40;;;;;;5087611;28;20028;-82
2022/03/04 09:39:24;;;;;;;4.45;1.58;;;9.40;68.30;;;;;;5086588;28;20410;-83
2022/03/04 09:41:51;;;;;;;3.55;2.28;;;9.40;68.30;;;;;;5068470;28;20035;-82
2022/03/04 09:44:17;;;;;;;6.82;1.52;;;9.50;68.40;;;;;;5086970;28;20035;-83
2022/03/04 09:46:44;;;;;;;3.13;1.58;;;9.50;68.30;;;;;;5086605;28;20074;-83
2022/03/04 09:49:15;;;;;;;2.63;1.33;;;9.50;68.80;;;;;;5068527;28;20259;-82
2022/03/04 09:51:41;;;;;;;4.30;2.00;;;9.60;68.30;;;;;;5069641;28;20047;-82
2022/03/04 09:54:07;;;;;;;3.13;1.48;;;9.60;68.20;;;;;;5070184;28;20115;-81
2022/03/04 09:56:33;;;;;;;2.97;1.60;;;9.70;68.40;;;;;;5070780;28;20032;-83
2022/03/04 09:59:00;;;;;;;5.00;1.70;;;9.70;68.30;;;;;;5070643;28;20023;-81
2022/03/04 10:01:26;;;;;;;5.88;1.88;;;9.80;68.40;;;;;;5070162;28;20051;-81
2022/03/04 10:03:54;;;;;;;2.42;1.40;;;9.80;68.30;;;;;;5088541;28;20050;-81
2022/03/04 10:06:21;;;;;;;3.65;1.50;;;9.80;68.20;;;;;;5088674;28;20111;-80
2022/03/04 10:08:53;;;;;;;4.38;1.27;;;9.80;68.10;;;;;;5088201;28;20020;-81
2022/03/04 10:11:31;;;;;;;3.15;1.67;;;9.90;68.20;;;;;;5088042;28;20050;-83
2022/03/04 10:13:59;;;;;;;7.30;1.63;;;9.90;68.20;;;;;;5088479;28;20028;-81
2022/03/04 10:16:28;;;;;;;3.60;1.50;;;9.90;68.10;;;;;;5088187;28;20024;-81
2022/03/04 10:19:09;;;;;;;4.45;1.60;;;10.00;68.20;;;;;;5069944;28;20028;-81
2022/03/04 10:21:55;;;;;;;5.90;2.63;;;10.00;68.10;;;;;;5069659;28;20222;-81
2022/03/04 10:24:27;;;;;;;3.83;2.03;;;10.00;68.00;;;;;;5088625;28;20042;-80
2022/03/04 10:27:03;;;;;;;4.95;1.85;;;10.00;67.90;;;;;;5090526;28;20672;-81
2022/03/04 10:29:32;;;;;;;3.05;1.13;;;10.10;68.00;;;;;;5072253;28;20032;-82
2022/03/04 10:32:22;;;;;;;1.92;1.52;;;10.10;68.00;;;;;;5089483;28;20097;-82
2022/03/04 10:34:55;;;;;;;3.88;1.60;;;10.20;68.10;;;;;;5070807;28;20485;-83
2022/03/04 10:37:52;;;;;;;3.58;1.75;;;10.20;68.00;;;;;;5070763;28;20036;-82
2022/03/04 10:40:23;;;;;;;5.75;1.70;;;10.20;67.90;;;;;;5067970;28;20042;-80
2022/03/04 10:42:55;;;;;;;3.30;1.50;;;10.30;68.00;;;;;;5050100;28;20024;-81
2022/03/04 10:45:41;;;;;;;3.10;1.55;;;10.30;67.90;;;;;;5049565;28;20043;-80
2022/03/04 10:48:10;;;;;;;3.67;1.55;;;10.40;68.00;;;;;;5067344;28;20054;-80
2022/03/04 10:50:43;;;;;;;4.10;2.17;;;10.50;68.10;;;;;;5067328;28;20534;-80
2022/03/04 10:53:19;;;;;;;;;;;10.50;68.00;;;;;;5050258;28;20072;-80
2022/03/04 10:55:49;;;;;;;2.17;1.30;;;10.50;67.80;;;;;;5086897;28;19987;-80
2022/03/04 10:58:15;;;;;;;4.15;1.80;;;10.60;68.00;;;;;;5087660;28;20111;-79
2022/03/04 11:00:47;;;;;;;2.72;1.77;;;10.60;67.80;;;;;;5086740;28;20494;-78
2022/03/04 11:03:16;;;;;;;7.88;2.95;;;10.60;67.80;;;;;;5069046;28;20688;-79
2022/03/04 11:05:42;;;;;;;5.05;1.65;;;10.70;67.80;;;;;;5087277;28;20044;-78
2022/03/04 11:08:09;;;;;;;3.97;2.13;;;10.70;67.70;;;;;;5087263;28;20028;-79
2022/03/04 11:10:36;;;;;;;3.17;1.20;;;10.80;67.80;;;;;;5086826;28;20056;-78
2022/03/04 11:13:07;;;;;;;4.15;1.80;;;10.90;67.80;;;;;;5069227;28;20040;-80
2022/03/04 11:15:34;;;;;;;5.32;2.00;;;10.90;67.70;;;;;;5068991;28;20028;-79
2022/03/04 11:18:06;;;;;;;3.83;1.52;;;10.90;67.50;;;;;;5069010;28;20491;-80
2022/03/04 11:20:33;;;;;;;4.30;1.80;;;10.90;67.40;;;;;;5068990;28;20475;-80
2022/03/04 11:23:00;;;;;;;2.97;1.30;;;11.00;67.60;;;;;;5069000;28;20040;-80
2022/03/04 11:25:34;;;;;;;5.30;1.40;;;11.00;67.50;;;;;;5068841;28;20081;-80
2022/03/04 11:28:15;;;;;;;4.55;1.42;;;11.00;67.40;;;;;;5086946;28;20114;-80
2022/03/04 11:30:44;;;;;;;3.35;1.67;;;11.10;67.50;;;;;;5068318;28;20324;-78
2022/03/04 11:33:28;;;;;;;2.95;1.83;;;11.10;67.40;;;;;;5073015;28;20037;-78
2022/03/04 11:36:09;;;;;;;3.65;2.22;;;11.20;67.40;;;;;;5068814;28;20063;-79
2022/03/04 11:38:44;;;;;;;3.65;1.83;;;11.30;67.40;;;;;;5060043;28;20052;-78
2022/03/04 11:41:16;;;;;;;1.83;1.60;;;11.40;67.40;;;;;;5048568;28;20511;-79
2022/03/04 11:43:50;;;;;;;6.82;2.83;;;11.50;67.40;;;;;;5048859;28;20021;-78
2022/03/04 11:46:25;;;;;;;9.30;5.05;;;11.60;67.30;;;;;;5066847;28;20090;-79
2022/03/04 11:49:22;;;;;;;4.30;2.80;;;11.80;67.30;;;;;;5048489;28;20060;-79
2022/03/04 11:52:10;;;;;;;4.85;1.60;;;11.90;67.10;;;;;;5066069;28;20051;-78
2022/03/04 11:54:39;;;;;;;7.22;1.83;;;12.10;66.90;;;;;;5068942;28;20032;-77
2022/03/04 11:57:30;;;;;;;4.40;1.17;;;12.30;67.40;;;;;;5086947;28;20493;-78
2022/03/04 12:00:16;;;;;;;3.15;1.80;;;12.40;66.60;;;;;;5085221;28;20034;-79
2022/03/04 12:02:42;;;;;;;3.85;2.10;;;12.50;66.40;;;;;;5068298;28;20081;-77
2022/03/04 12:05:18;;;;;;;4.65;1.98;;;12.50;66.40;;;;;;5086816;28;20032;-77
2022/03/04 12:07:47;;;;;;;3.25;2.10;;;12.60;66.30;;;;;;5067270;28;20040;-78
2022/03/04 12:10:31;;;;;;;3.10;1.77;;;12.60;66.20;;;;;;5048152;28;20025;-78
2022/03/04 12:13:05;;;;;;;6.60;1.85;;;12.60;66.00;;;;;;5048441;28;20036;-79
2022/03/04 12:15:38;;;;;;;4.25;1.20;;;12.60;66.60;;;;;;5066468;28;20021;-78
2022/03/04 12:18:09;;;;;;;3.33;1.65;;;12.60;65.90;;;;;;5048847;28;20032;-77
2022/03/04 12:20:42;;;;;;;2.10;1.20;;;12.60;65.90;;;;;;5067964;28;20028;-78
2022/03/04 12:23:16;;;;;;;8.65;1.65;;;12.60;66.00;;;;;;5052174;28;20116;-78
2022/03/04 12:25:54;;;;;;;9.57;2.42;;;12.70;66.50;;;;;;5051878;28;20032;-77
2022/03/04 12:28:27;;;;;;;11.02;3.78;;;12.80;67.00;;;;;;5070131;28;20575;-76
2022/03/04 12:31:05;;;;;;;5.65;1.50;;;12.90;67.60;;;;;;5071992;28;20278;-76
2022/03/04 12:33:35;;;;;;;1.88;1.10;;;13.20;69.10;;;;;;5069116;28;20029;-77
2022/03/04 12:36:06;;;;;;;5.97;1.63;;;13.50;69.70;;;;;;5070355;28;20029;-79
2022/03/04 12:38:41;;;;;;;3.53;1.20;;;13.90;70.10;;;;;;5077780;28;20471;-77
2022/03/04 12:41:16;;;;;;;4.35;1.20;;;14.30;70.40;;;;;;5089710;28;20032;-77
2022/03/04 12:44:10;;;;;;;2.55;1.20;;;14.60;70.30;;;;;;5055073;28;20067;-77
2022/03/04 12:46:41;;;;;;;4.10;1.10;;;14.90;70.70;;;;;;5054453;28;20050;-77
2022/03/04 12:49:09;;;;;;;3.50;1.10;;;15.30;71.10;;;;;;5089601;28;20131;-78
2022/03/04 12:51:37;;;;;;;6.50;1.90;;;15.40;70.90;;;;;;5072171;28;20040;-77
2022/03/04 12:54:15;;;;;;;4.38;1.80;;;15.60;70.90;;;;;;5072161;28;20021;-78
2022/03/04 12:56:41;;;;;;;4.70;1.45;;;15.80;71.00;;;;;;5089748;28;20391;-79
2022/03/04 12:59:09;;;;;;;2.63;1.33;;;15.90;71.00;;;;;;5090116;28;20111;-85
2022/03/04 13:01:43;;;;;;;3.92;1.70;;;16.00;70.90;;;;;;5071404;28;20032;-80